sensor_id;sensor_type;location;lat;lon;timestamp;temperature;humidity
3037;DHT22;1528;52.550;13.408;2023-07-29T00:00:37;20.10;55.90
3037;DHT22;1528;52.550;13.408;2023-07-29T00:03:22;20.10;56.00
3037;DHT22;1528;52.550;13.408;2023-07-29T00:06:09;20.10;56.00
3037;DHT22;1528;52.550;13.408;2023-07-29T00:08:55;20.10;56.00
3037;DHT22;1528;52.550;13.408;2023-07-29T00:11:42;20.10;55.90
3037;DHT22;1528;52.550;13.408;2023-07-29T00:14:27;20.00;56.00
3037;DHT22;1528;52.550;13.408;2023-07-29T00:17:13;20.00;56.20
3037;DHT22;1528;52.550;13.408;2023-07-29T00:19:59;20.00;56.10
3037;DHT22;1528;52.550;13.408;2023-07-29T00:22:44;20.00;56.00
3037;DHT22;1528;52.550;13.408;2023-07-29T00:25:30;20.00;56.30
3037;DHT22;1528;52.550;13.408;2023-07-29T00:28:17;20.00;56.20
3037;DHT22;1528;52.550;13.408;2023-07-29T00:31:02;20.00;56.00
3037;DHT22;1528;52.550;13.408;2023-07-29T00:33:48;20.00;55.80
3037;DHT22;1528;52.550;13.408;2023-07-29T00:36:33;20.00;55.90
3037;DHT22;1528;52.550;13.408;2023-07-29T00:39:19;20.00;55.80
3037;DHT22;1528;52.550;13.408;2023-07-29T00:42:05;20.00;56.00
3037;DHT22;1528;52.550;13.408;2023-07-29T00:44:52;19.90;56.00
3037;DHT22;1528;52.550;13.408;2023-07-29T00:47:38;19.90;56.20
3037;DHT22;1528;52.550;13.408;2023-07-29T00:50:24;19.80;56.40
3037;DHT22;1528;52.550;13.408;2023-07-29T00:53:11;19.80;56.80
3037;DHT22;1528;52.550;13.408;2023-07-29T00:55:57;19.80;56.70
3037;DHT22;1528;52.550;13.408;2023-07-29T00:58:43;19.80;56.60
3037;DHT22;1528;52.550;13.408;2023-07-29T01:01:29;19.80;56.70
3037;DHT22;1528;52.550;13.408;2023-07-29T01:04:15;19.80;56.90
3037;DHT22;1528;52.550;13.408;2023-07-29T01:07:07;19.70;56.80
3037;DHT22;1528;52.550;13.408;2023-07-29T01:10:01;19.70;56.90
3037;DHT22;1528;52.550;13.408;2023-07-29T01:12:51;19.70;56.90
3037;DHT22;1528;52.550;13.408;2023-07-29T01:15:44;19.70;56.80
3037;DHT22;1528;52.550;13.408;2023-07-29T01:18:36;19.60;56.70
3037;DHT22;1528;52.550;13.408;2023-07-29T01:21:24;19.60;56.70
3037;DHT22;1528;52.550;13.408;2023-07-29T01:24:12;19.60;56.80
3037;DHT22;1528;52.550;13.408;2023-07-29T01:26:58;19.60;57.40
3037;DHT22;1528;52.550;13.408;2023-07-29T01:29:45;19.50;56.70
3037;DHT22;1528;52.550;13.408;2023-07-29T01:32:36;19.50;56.90
3037;DHT22;1528;52.550;13.408;2023-07-29T01:35:26;19.50;56.90
3037;DHT22;1528;52.550;13.408;2023-07-29T01:38:14;19.50;57.00
3037;DHT22;1528;52.550;13.408;2023-07-29T01:41:04;19.50;56.90
3037;DHT22;1528;52.550;13.408;2023-07-29T01:43:52;19.40;56.80
3037;DHT22;1528;52.550;13.408;2023-07-29T01:46:38;19.50;56.70
3037;DHT22;1528;52.550;13.408;2023-07-29T01:49:23;19.40;56.60
3037;DHT22;1528;52.550;13.408;2023-07-29T01:52:09;19.40;56.60
3037;DHT22;1528;52.550;13.408;2023-07-29T01:54:55;19.40;56.60
3037;DHT22;1528;52.550;13.408;2023-07-29T01:57:41;19.40;56.60
3037;DHT22;1528;52.550;13.408;2023-07-29T02:00:28;19.40;56.60
3037;DHT22;1528;52.550;13.408;2023-07-29T02:03:14;19.40;56.60
3037;DHT22;1528;52.550;13.408;2023-07-29T02:06:00;19.30;56.50
3037;DHT22;1528;52.550;13.408;2023-07-29T02:08:45;19.40;56.60
3037;DHT22;1528;52.550;13.408;2023-07-29T02:18:54;19.30;56.20
3037;DHT22;1528;52.550;13.408;2023-07-29T02:21:40;19.30;56.10
3037;DHT22;1528;52.550;13.408;2023-07-29T02:24:26;19.30;56.30
3037;DHT22;1528;52.550;13.408;2023-07-29T02:27:11;19.30;56.50
3037;DHT22;1528;52.550;13.408;2023-07-29T02:29:57;19.30;56.20
3037;DHT22;1528;52.550;13.408;2023-07-29T02:32:42;19.40;56.20
3037;DHT22;1528;52.550;13.408;2023-07-29T02:35:29;19.30;56.50
3037;DHT22;1528;52.550;13.408;2023-07-29T02:38:14;19.30;56.50
3037;DHT22;1528;52.550;13.408;2023-07-29T02:41:00;19.30;56.50
3037;DHT22;1528;52.550;13.408;2023-07-29T02:43:48;19.30;56.50
3037;DHT22;1528;52.550;13.408;2023-07-29T02:46:34;19.30;56.40
3037;DHT22;1528;52.550;13.408;2023-07-29T02:49:20;19.20;56.30
3037;DHT22;1528;52.550;13.408;2023-07-29T02:52:07;19.20;56.50
3037;DHT22;1528;52.550;13.408;2023-07-29T02:54:53;19.20;57.10
3037;DHT22;1528;52.550;13.408;2023-07-29T02:57:38;19.10;56.30
3037;DHT22;1528;52.550;13.408;2023-07-29T03:00:24;19.10;56.30
3037;DHT22;1528;52.550;13.408;2023-07-29T03:03:10;19.10;56.30
3037;DHT22;1528;52.550;13.408;2023-07-29T03:05:58;19.10;56.40
3037;DHT22;1528;52.550;13.408;2023-07-29T03:08:45;19.00;56.20
3037;DHT22;1528;52.550;13.408;2023-07-29T03:11:30;19.10;56.30
3037;DHT22;1528;52.550;13.408;2023-07-29T03:14:16;19.10;56.30
3037;DHT22;1528;52.550;13.408;2023-07-29T03:17:02;19.30;56.20
3037;DHT22;1528;52.550;13.408;2023-07-29T03:19:48;19.20;55.90
3037;DHT22;1528;52.550;13.408;2023-07-29T03:22:34;19.10;56.00
3037;DHT22;1528;52.550;13.408;2023-07-29T03:25:21;19.00;56.20
3037;DHT22;1528;52.550;13.408;2023-07-29T03:28:07;19.00;56.40
3037;DHT22;1528;52.550;13.408;2023-07-29T03:30:53;19.00;56.60
3037;DHT22;1528;52.550;13.408;2023-07-29T03:33:38;19.00;56.20
3037;DHT22;1528;52.550;13.408;2023-07-29T03:36:24;19.00;56.20
3037;DHT22;1528;52.550;13.408;2023-07-29T03:39:09;19.10;56.90
3037;DHT22;1528;52.550;13.408;2023-07-29T03:41:56;19.00;56.10
3037;DHT22;1528;52.550;13.408;2023-07-29T03:44:42;19.00;56.90
3037;DHT22;1528;52.550;13.408;2023-07-29T03:47:27;19.00;56.20
3037;DHT22;1528;52.550;13.408;2023-07-29T03:50:13;19.00;56.20
3037;DHT22;1528;52.550;13.408;2023-07-29T03:52:59;18.90;56.30
3037;DHT22;1528;52.550;13.408;2023-07-29T03:55:44;18.90;56.20
3037;DHT22;1528;52.550;13.408;2023-07-29T03:58:32;18.90;56.70
3037;DHT22;1528;52.550;13.408;2023-07-29T04:01:17;19.00;56.70
3037;DHT22;1528;52.550;13.408;2023-07-29T04:04:03;19.00;56.70
3037;DHT22;1528;52.550;13.408;2023-07-29T04:06:49;19.00;56.50
3037;DHT22;1528;52.550;13.408;2023-07-29T04:09:34;19.10;56.30
3037;DHT22;1528;52.550;13.408;2023-07-29T04:12:20;19.10;55.90
3037;DHT22;1528;52.550;13.408;2023-07-29T04:15:08;19.10;56.10
3037;DHT22;1528;52.550;13.408;2023-07-29T04:17:54;19.10;55.90
3037;DHT22;1528;52.550;13.408;2023-07-29T04:20:40;19.10;56.00
3037;DHT22;1528;52.550;13.408;2023-07-29T04:23:25;19.20;55.90
3037;DHT22;1528;52.550;13.408;2023-07-29T04:26:11;19.30;55.40
3037;DHT22;1528;52.550;13.408;2023-07-29T04:28:56;19.30;55.10
3037;DHT22;1528;52.550;13.408;2023-07-29T04:31:44;19.30;55.20
3037;DHT22;1528;52.550;13.408;2023-07-29T04:34:30;19.40;55.40
3037;DHT22;1528;52.550;13.408;2023-07-29T04:37:16;19.40;54.40
3037;DHT22;1528;52.550;13.408;2023-07-29T04:40:01;19.40;54.40
3037;DHT22;1528;52.550;13.408;2023-07-29T04:42:47;19.50;54.00
3037;DHT22;1528;52.550;13.408;2023-07-29T04:45:33;19.60;54.10
3037;DHT22;1528;52.550;13.408;2023-07-29T04:48:20;19.70;53.90
3037;DHT22;1528;52.550;13.408;2023-07-29T04:51:06;19.70;53.60
3037;DHT22;1528;52.550;13.408;2023-07-29T04:53:51;19.70;53.60
3037;DHT22;1528;52.550;13.408;2023-07-29T04:56:37;19.80;53.50
3037;DHT22;1528;52.550;13.408;2023-07-29T04:59:23;19.90;53.40
3037;DHT22;1528;52.550;13.408;2023-07-29T05:02:08;19.90;53.20
3037;DHT22;1528;52.550;13.408;2023-07-29T05:04:55;19.90;53.30
3037;DHT22;1528;52.550;13.408;2023-07-29T05:07:40;20.00;53.30
3037;DHT22;1528;52.550;13.408;2023-07-29T05:10:26;20.00;52.90
3037;DHT22;1528;52.550;13.408;2023-07-29T05:13:12;20.10;52.60
3037;DHT22;1528;52.550;13.408;2023-07-29T05:15:57;20.20;52.20
3037;DHT22;1528;52.550;13.408;2023-07-29T05:18:43;20.30;51.70
3037;DHT22;1528;52.550;13.408;2023-07-29T05:21:30;20.30;52.20
3037;DHT22;1528;52.550;13.408;2023-07-29T05:24:16;20.30;51.50
3037;DHT22;1528;52.550;13.408;2023-07-29T05:27:01;20.30;51.30
3037;DHT22;1528;52.550;13.408;2023-07-29T05:29:47;20.30;51.40
3037;DHT22;1528;52.550;13.408;2023-07-29T05:32:32;20.30;51.40
3037;DHT22;1528;52.550;13.408;2023-07-29T05:35:18;20.40;51.40
3037;DHT22;1528;52.550;13.408;2023-07-29T05:38:05;20.40;51.30
3037;DHT22;1528;52.550;13.408;2023-07-29T05:40:52;20.50;51.20
3037;DHT22;1528;52.550;13.408;2023-07-29T05:43:38;20.80;50.40
3037;DHT22;1528;52.550;13.408;2023-07-29T05:46:24;20.80;50.20
3037;DHT22;1528;52.550;13.408;2023-07-29T05:49:10;20.90;49.50
3037;DHT22;1528;52.550;13.408;2023-07-29T05:51:56;20.90;49.40
3037;DHT22;1528;52.550;13.408;2023-07-29T05:54:43;20.90;49.20
3037;DHT22;1528;52.550;13.408;2023-07-29T05:57:29;20.90;49.50
3037;DHT22;1528;52.550;13.408;2023-07-29T06:00:15;20.90;49.00
3037;DHT22;1528;52.550;13.408;2023-07-29T06:03:00;20.90;49.30
3037;DHT22;1528;52.550;13.408;2023-07-29T06:05:46;20.90;49.20
3037;DHT22;1528;52.550;13.408;2023-07-29T06:08:32;20.90;49.50
3037;DHT22;1528;52.550;13.408;2023-07-29T06:11:19;21.00;49.50
3037;DHT22;1528;52.550;13.408;2023-07-29T06:14:04;21.10;49.10
3037;DHT22;1528;52.550;13.408;2023-07-29T06:16:50;21.20;49.00
3037;DHT22;1528;52.550;13.408;2023-07-29T06:19:36;21.20;49.00
3037;DHT22;1528;52.550;13.408;2023-07-29T06:22:22;21.20;49.10
3037;DHT22;1528;52.550;13.408;2023-07-29T06:25:07;21.30;48.60
3037;DHT22;1528;52.550;13.408;2023-07-29T06:27:54;21.30;48.50
3037;DHT22;1528;52.550;13.408;2023-07-29T06:30:40;21.30;48.70
3037;DHT22;1528;52.550;13.408;2023-07-29T06:33:26;21.50;48.60
3037;DHT22;1528;52.550;13.408;2023-07-29T06:36:11;21.50;48.30
3037;DHT22;1528;52.550;13.408;2023-07-29T06:38:57;21.60;48.30
3037;DHT22;1528;52.550;13.408;2023-07-29T06:41:43;21.70;47.80
3037;DHT22;1528;52.550;13.408;2023-07-29T06:44:30;21.70;48.40
3037;DHT22;1528;52.550;13.408;2023-07-29T06:47:16;21.80;47.40
3037;DHT22;1528;52.550;13.408;2023-07-29T06:50:01;21.90;46.80
3037;DHT22;1528;52.550;13.408;2023-07-29T06:52:47;21.90;46.90
3037;DHT22;1528;52.550;13.408;2023-07-29T06:55:33;22.00;46.70
3037;DHT22;1528;52.550;13.408;2023-07-29T06:58:18;22.10;46.20
3037;DHT22;1528;52.550;13.408;2023-07-29T07:01:05;22.20;45.90
3037;DHT22;1528;52.550;13.408;2023-07-29T07:03:51;22.30;46.10
3037;DHT22;1528;52.550;13.408;2023-07-29T07:06:38;22.40;45.30
3037;DHT22;1528;52.550;13.408;2023-07-29T07:09:24;22.70;44.90
3037;DHT22;1528;52.550;13.408;2023-07-29T07:12:09;22.90;44.50
3037;DHT22;1528;52.550;13.408;2023-07-29T07:14:55;23.20;43.40
3037;DHT22;1528;52.550;13.408;2023-07-29T07:17:42;23.40;43.20
3037;DHT22;1528;52.550;13.408;2023-07-29T07:20:27;23.50;42.80
3037;DHT22;1528;52.550;13.408;2023-07-29T07:23:13;23.50;41.90
3037;DHT22;1528;52.550;13.408;2023-07-29T07:25:59;23.60;41.20
3037;DHT22;1528;52.550;13.408;2023-07-29T07:28:45;23.40;41.50
3037;DHT22;1528;52.550;13.408;2023-07-29T07:31:33;23.30;41.80
3037;DHT22;1528;52.550;13.408;2023-07-29T07:34:21;23.20;41.80
3037;DHT22;1528;52.550;13.408;2023-07-29T07:37:06;23.10;42.60
3037;DHT22;1528;52.550;13.408;2023-07-29T07:39:52;23.00;42.90
3037;DHT22;1528;52.550;13.408;2023-07-29T07:42:37;23.10;43.30
3037;DHT22;1528;52.550;13.408;2023-07-29T07:45:23;23.30;43.10
3037;DHT22;1528;52.550;13.408;2023-07-29T07:48:09;23.60;42.60
3037;DHT22;1528;52.550;13.408;2023-07-29T07:50:58;23.90;41.60
3037;DHT22;1528;52.550;13.408;2023-07-29T07:53:44;23.90;41.10
3037;DHT22;1528;52.550;13.408;2023-07-29T07:56:29;24.00;40.80
3037;DHT22;1528;52.550;13.408;2023-07-29T07:59:15;24.00;40.40
3037;DHT22;1528;52.550;13.408;2023-07-29T08:02:01;24.20;40.50
3037;DHT22;1528;52.550;13.408;2023-07-29T08:04:46;24.40;39.70
3037;DHT22;1528;52.550;13.408;2023-07-29T08:07:33;24.60;39.00
3037;DHT22;1528;52.550;13.408;2023-07-29T08:10:19;24.80;38.00
3037;DHT22;1528;52.550;13.408;2023-07-29T08:13:04;24.80;37.60
3037;DHT22;1528;52.550;13.408;2023-07-29T08:15:51;24.80;37.60
3037;DHT22;1528;52.550;13.408;2023-07-29T08:18:37;24.80;37.40
3037;DHT22;1528;52.550;13.408;2023-07-29T08:21:22;25.00;37.70
3037;DHT22;1528;52.550;13.408;2023-07-29T08:24:09;24.90;37.20
3037;DHT22;1528;52.550;13.408;2023-07-29T08:26:55;24.80;37.80
3037;DHT22;1528;52.550;13.408;2023-07-29T08:29:40;24.80;37.20
3037;DHT22;1528;52.550;13.408;2023-07-29T08:32:26;24.70;36.90
3037;DHT22;1528;52.550;13.408;2023-07-29T08:35:12;24.60;36.90
3037;DHT22;1528;52.550;13.408;2023-07-29T08:37:57;24.50;37.50
3037;DHT22;1528;52.550;13.408;2023-07-29T08:40:48;24.40;37.50
3037;DHT22;1528;52.550;13.408;2023-07-29T08:43:38;24.50;37.50
3037;DHT22;1528;52.550;13.408;2023-07-29T08:46:24;24.60;38.50
3037;DHT22;1528;52.550;13.408;2023-07-29T08:49:11;24.60;37.40
3037;DHT22;1528;52.550;13.408;2023-07-29T08:51:59;24.80;36.50
3037;DHT22;1528;52.550;13.408;2023-07-29T08:54:45;25.00;36.30
3037;DHT22;1528;52.550;13.408;2023-07-29T08:57:33;25.00;35.30
3037;DHT22;1528;52.550;13.408;2023-07-29T09:00:19;24.90;35.30
3037;DHT22;1528;52.550;13.408;2023-07-29T09:03:05;24.90;35.70
3037;DHT22;1528;52.550;13.408;2023-07-29T09:05:51;24.80;36.00
3037;DHT22;1528;52.550;13.408;2023-07-29T09:08:37;24.90;35.90
3037;DHT22;1528;52.550;13.408;2023-07-29T09:11:23;24.90;35.40
3037;DHT22;1528;52.550;13.408;2023-07-29T09:14:10;24.90;35.00
3037;DHT22;1528;52.550;13.408;2023-07-29T09:16:57;24.80;35.40
3037;DHT22;1528;52.550;13.408;2023-07-29T09:19:47;24.90;35.40
3037;DHT22;1528;52.550;13.408;2023-07-29T09:22:33;25.00;35.20
3037;DHT22;1528;52.550;13.408;2023-07-29T09:25:23;25.00;34.60
3037;DHT22;1528;52.550;13.408;2023-07-29T09:28:10;25.00;35.00
3037;DHT22;1528;52.550;13.408;2023-07-29T09:30:57;25.20;35.10
3037;DHT22;1528;52.550;13.408;2023-07-29T09:33:42;25.40;34.10
3037;DHT22;1528;52.550;13.408;2023-07-29T09:36:31;25.50;33.90
3037;DHT22;1528;52.550;13.408;2023-07-29T09:39:16;25.60;33.50
3037;DHT22;1528;52.550;13.408;2023-07-29T09:42:02;25.60;32.80
3037;DHT22;1528;52.550;13.408;2023-07-29T09:44:49;25.70;32.80
3037;DHT22;1528;52.550;13.408;2023-07-29T09:47:36;25.80;32.60
3037;DHT22;1528;52.550;13.408;2023-07-29T09:50:23;26.00;32.60
3037;DHT22;1528;52.550;13.408;2023-07-29T09:53:09;26.00;31.80
3037;DHT22;1528;52.550;13.408;2023-07-29T09:55:55;25.90;31.60
3037;DHT22;1528;52.550;13.408;2023-07-29T09:58:43;25.80;31.90
3037;DHT22;1528;52.550;13.408;2023-07-29T10:01:29;25.70;31.90
3037;DHT22;1528;52.550;13.408;2023-07-29T10:04:17;25.70;32.30
3037;DHT22;1528;52.550;13.408;2023-07-29T10:07:03;25.70;32.90
3037;DHT22;1528;52.550;13.408;2023-07-29T10:09:52;25.80;32.60
3037;DHT22;1528;52.550;13.408;2023-07-29T10:12:39;25.90;32.30
3037;DHT22;1528;52.550;13.408;2023-07-29T10:15:27;25.80;32.10
3037;DHT22;1528;52.550;13.408;2023-07-29T10:18:14;25.80;32.50
3037;DHT22;1528;52.550;13.408;2023-07-29T10:21:02;25.90;32.30
3037;DHT22;1528;52.550;13.408;2023-07-29T10:23:53;25.90;30.90
3037;DHT22;1528;52.550;13.408;2023-07-29T10:26:39;26.00;30.10
3037;DHT22;1528;52.550;13.408;2023-07-29T10:29:30;25.80;30.80
3037;DHT22;1528;52.550;13.408;2023-07-29T10:32:16;25.70;31.60
3037;DHT22;1528;52.550;13.408;2023-07-29T10:35:02;25.70;31.50
3037;DHT22;1528;52.550;13.408;2023-07-29T10:37:49;25.70;31.50
3037;DHT22;1528;52.550;13.408;2023-07-29T10:40:46;25.80;30.70
3037;DHT22;1528;52.550;13.408;2023-07-29T10:43:34;25.90;30.80
3037;DHT22;1528;52.550;13.408;2023-07-29T10:46:22;26.10;30.20
3037;DHT22;1528;52.550;13.408;2023-07-29T10:49:08;26.10;30.40
3037;DHT22;1528;52.550;13.408;2023-07-29T10:51:54;26.10;30.00
3037;DHT22;1528;52.550;13.408;2023-07-29T10:54:43;26.00;30.00
3037;DHT22;1528;52.550;13.408;2023-07-29T10:57:33;25.90;29.90
3037;DHT22;1528;52.550;13.408;2023-07-29T11:00:20;25.80;30.40
3037;DHT22;1528;52.550;13.408;2023-07-29T11:03:07;25.70;30.60
3037;DHT22;1528;52.550;13.408;2023-07-29T11:05:53;25.60;31.20
3037;DHT22;1528;52.550;13.408;2023-07-29T11:08:39;25.50;31.20
3037;DHT22;1528;52.550;13.408;2023-07-29T11:11:26;25.50;30.80
3037;DHT22;1528;52.550;13.408;2023-07-29T11:14:12;25.30;31.10
3037;DHT22;1528;52.550;13.408;2023-07-29T11:16:58;25.30;31.10
3037;DHT22;1528;52.550;13.408;2023-07-29T11:19:45;25.20;30.60
3037;DHT22;1528;52.550;13.408;2023-07-29T11:22:31;25.00;33.70
3037;DHT22;1528;52.550;13.408;2023-07-29T11:25:18;24.00;38.60
3037;DHT22;1528;52.550;13.408;2023-07-29T11:28:05;23.30;39.90
3037;DHT22;1528;52.550;13.408;2023-07-29T11:30:51;22.90;41.80
3037;DHT22;1528;52.550;13.408;2023-07-29T11:33:39;22.80;42.10
3037;DHT22;1528;52.550;13.408;2023-07-29T11:36:24;22.50;42.90
3037;DHT22;1528;52.550;13.408;2023-07-29T11:39:10;22.30;43.50
3037;DHT22;1528;52.550;13.408;2023-07-29T11:41:56;22.20;43.90
3037;DHT22;1528;52.550;13.408;2023-07-29T11:44:43;22.20;44.00
3037;DHT22;1528;52.550;13.408;2023-07-29T11:47:28;22.20;44.30
3037;DHT22;1528;52.550;13.408;2023-07-29T11:50:14;22.20;45.20
3037;DHT22;1528;52.550;13.408;2023-07-29T11:53:00;22.20;45.60
3037;DHT22;1528;52.550;13.408;2023-07-29T11:55:50;22.20;44.80
3037;DHT22;1528;52.550;13.408;2023-07-29T11:58:37;22.00;44.80
3037;DHT22;1528;52.550;13.408;2023-07-29T12:01:24;22.30;45.30
3037;DHT22;1528;52.550;13.408;2023-07-29T12:04:09;22.40;45.00
3037;DHT22;1528;52.550;13.408;2023-07-29T12:06:55;22.40;45.70
3037;DHT22;1528;52.550;13.408;2023-07-29T12:09:42;22.40;46.50
3037;DHT22;1528;52.550;13.408;2023-07-29T12:12:27;22.40;45.60
3037;DHT22;1528;52.550;13.408;2023-07-29T12:15:13;22.60;46.00
3037;DHT22;1528;52.550;13.408;2023-07-29T12:18:00;22.70;45.80
3037;DHT22;1528;52.550;13.408;2023-07-29T12:20:47;22.70;45.30
3037;DHT22;1528;52.550;13.408;2023-07-29T12:23:33;22.60;45.60
3037;DHT22;1528;52.550;13.408;2023-07-29T12:26:19;22.50;45.90
3037;DHT22;1528;52.550;13.408;2023-07-29T12:29:11;22.50;45.20
3037;DHT22;1528;52.550;13.408;2023-07-29T12:31:58;22.60;45.20
3037;DHT22;1528;52.550;13.408;2023-07-29T12:34:46;22.60;44.80
3037;DHT22;1528;52.550;13.408;2023-07-29T12:37:32;22.50;45.50
3037;DHT22;1528;52.550;13.408;2023-07-29T12:40:22;22.60;45.40
3037;DHT22;1528;52.550;13.408;2023-07-29T12:43:07;22.60;45.20
3037;DHT22;1528;52.550;13.408;2023-07-29T12:45:53;22.70;46.00
3037;DHT22;1528;52.550;13.408;2023-07-29T12:48:39;22.80;45.90
3037;DHT22;1528;52.550;13.408;2023-07-29T12:51:26;22.90;45.60
3037;DHT22;1528;52.550;13.408;2023-07-29T12:54:12;23.10;46.00
3037;DHT22;1528;52.550;13.408;2023-07-29T12:56:57;23.30;45.50
3037;DHT22;1528;52.550;13.408;2023-07-29T12:59:43;23.50;44.90
3037;DHT22;1528;52.550;13.408;2023-07-29T13:02:28;23.70;44.30
3037;DHT22;1528;52.550;13.408;2023-07-29T13:05:14;23.70;44.30
3037;DHT22;1528;52.550;13.408;2023-07-29T13:08:01;23.60;43.00
3037;DHT22;1528;52.550;13.408;2023-07-29T13:10:46;23.70;43.10
3037;DHT22;1528;52.550;13.408;2023-07-29T13:13:32;23.70;43.90
3037;DHT22;1528;52.550;13.408;2023-07-29T13:16:18;23.80;44.00
3037;DHT22;1528;52.550;13.408;2023-07-29T13:19:03;23.80;43.50
3037;DHT22;1528;52.550;13.408;2023-07-29T13:21:49;23.70;43.00
3037;DHT22;1528;52.550;13.408;2023-07-29T13:24:36;23.60;43.90
3037;DHT22;1528;52.550;13.408;2023-07-29T13:27:21;23.60;43.70
3037;DHT22;1528;52.550;13.408;2023-07-29T13:30:09;23.60;44.10
3037;DHT22;1528;52.550;13.408;2023-07-29T13:32:54;23.60;43.80
3037;DHT22;1528;52.550;13.408;2023-07-29T13:35:40;23.60;43.80
3037;DHT22;1528;52.550;13.408;2023-07-29T13:38:25;23.70;43.60
3037;DHT22;1528;52.550;13.408;2023-07-29T13:41:12;23.90;43.70
3037;DHT22;1528;52.550;13.408;2023-07-29T13:43:58;24.00;43.40
3037;DHT22;1528;52.550;13.408;2023-07-29T13:46:43;24.20;43.20
3037;DHT22;1528;52.550;13.408;2023-07-29T13:49:29;24.40;42.60
3037;DHT22;1528;52.550;13.408;2023-07-29T13:52:15;24.60;41.00
3037;DHT22;1528;52.550;13.408;2023-07-29T13:55:00;24.80;38.40
3037;DHT22;1528;52.550;13.408;2023-07-29T13:57:47;24.80;39.20
3037;DHT22;1528;52.550;13.408;2023-07-29T14:00:33;24.80;38.40
3037;DHT22;1528;52.550;13.408;2023-07-29T14:03:18;24.80;37.90
3037;DHT22;1528;52.550;13.408;2023-07-29T14:06:04;24.80;37.80
3037;DHT22;1528;52.550;13.408;2023-07-29T14:08:50;24.80;37.10
3037;DHT22;1528;52.550;13.408;2023-07-29T14:11:35;25.00;37.10
3037;DHT22;1528;52.550;13.408;2023-07-29T14:14:22;25.00;37.00
3037;DHT22;1528;52.550;13.408;2023-07-29T14:17:08;25.10;36.10
3037;DHT22;1528;52.550;13.408;2023-07-29T14:19:54;25.00;36.00
3037;DHT22;1528;52.550;13.408;2023-07-29T14:22:39;25.00;35.80
3037;DHT22;1528;52.550;13.408;2023-07-29T14:25:25;24.80;35.90
3037;DHT22;1528;52.550;13.408;2023-07-29T14:28:12;24.80;35.90
3037;DHT22;1528;52.550;13.408;2023-07-29T14:30:59;24.80;36.50
3037;DHT22;1528;52.550;13.408;2023-07-29T14:33:45;24.80;35.80
3037;DHT22;1528;52.550;13.408;2023-07-29T14:36:30;24.80;36.10
3037;DHT22;1528;52.550;13.408;2023-07-29T14:39:16;24.90;35.90
3037;DHT22;1528;52.550;13.408;2023-07-29T14:42:02;25.00;35.50
3037;DHT22;1528;52.550;13.408;2023-07-29T14:44:47;25.20;34.50
3037;DHT22;1528;52.550;13.408;2023-07-29T14:47:34;25.20;34.20
3037;DHT22;1528;52.550;13.408;2023-07-29T14:50:19;25.10;34.90
3037;DHT22;1528;52.550;13.408;2023-07-29T14:53:05;25.00;34.80
3037;DHT22;1528;52.550;13.408;2023-07-29T14:55:50;24.90;35.00
3037;DHT22;1528;52.550;13.408;2023-07-29T14:58:36;24.70;35.00
3037;DHT22;1528;52.550;13.408;2023-07-29T15:01:22;24.80;35.00
3037;DHT22;1528;52.550;13.408;2023-07-29T15:04:09;24.80;35.40
3037;DHT22;1528;52.550;13.408;2023-07-29T15:06:54;24.80;35.60
3037;DHT22;1528;52.550;13.408;2023-07-29T15:09:41;24.80;35.30
3037;DHT22;1528;52.550;13.408;2023-07-29T15:12:27;24.70;35.60
3037;DHT22;1528;52.550;13.408;2023-07-29T15:15:13;24.70;36.40
3037;DHT22;1528;52.550;13.408;2023-07-29T15:17:58;24.70;36.80
3037;DHT22;1528;52.550;13.408;2023-07-29T15:20:45;24.60;36.50
3037;DHT22;1528;52.550;13.408;2023-07-29T15:23:31;24.40;35.40
3037;DHT22;1528;52.550;13.408;2023-07-29T15:26:16;24.40;35.40
3037;DHT22;1528;52.550;13.408;2023-07-29T15:29:02;24.30;35.80
3037;DHT22;1528;52.550;13.408;2023-07-29T15:31:48;24.20;36.20
3037;DHT22;1528;52.550;13.408;2023-07-29T15:34:33;24.10;36.50
3037;DHT22;1528;52.550;13.408;2023-07-29T15:37:20;24.00;36.80
3037;DHT22;1528;52.550;13.408;2023-07-29T15:40:07;23.90;38.60
3037;DHT22;1528;52.550;13.408;2023-07-29T15:42:53;23.90;37.80
3037;DHT22;1528;52.550;13.408;2023-07-29T15:45:39;23.60;37.30
3037;DHT22;1528;52.550;13.408;2023-07-29T15:48:27;23.10;34.60
3037;DHT22;1528;52.550;13.408;2023-07-29T15:51:12;22.70;35.60
3037;DHT22;1528;52.550;13.408;2023-07-29T15:53:59;22.40;36.80
3037;DHT22;1528;52.550;13.408;2023-07-29T15:56:45;22.10;38.50
3037;DHT22;1528;52.550;13.408;2023-07-29T15:59:31;22.00;39.70
3037;DHT22;1528;52.550;13.408;2023-07-29T16:02:16;21.90;38.90
3037;DHT22;1528;52.550;13.408;2023-07-29T16:05:02;21.70;39.50
3037;DHT22;1528;52.550;13.408;2023-07-29T16:07:48;21.60;40.90
3037;DHT22;1528;52.550;13.408;2023-07-29T16:10:37;21.60;41.40
3037;DHT22;1528;52.550;13.408;2023-07-29T16:20:45;22.50;39.20
3037;DHT22;1528;52.550;13.408;2023-07-29T16:23:31;22.60;37.40
3037;DHT22;1528;52.550;13.408;2023-07-29T16:26:19;22.60;36.60
3037;DHT22;1528;52.550;13.408;2023-07-29T16:29:04;22.50;37.70
3037;DHT22;1528;52.550;13.408;2023-07-29T16:31:51;22.40;38.60
3037;DHT22;1528;52.550;13.408;2023-07-29T16:34:37;22.40;38.00
3037;DHT22;1528;52.550;13.408;2023-07-29T16:37:23;22.40;37.80
3037;DHT22;1528;52.550;13.408;2023-07-29T16:40:09;22.30;36.90
3037;DHT22;1528;52.550;13.408;2023-07-29T16:42:56;22.30;37.80
3037;DHT22;1528;52.550;13.408;2023-07-29T16:45:41;22.30;38.10
3037;DHT22;1528;52.550;13.408;2023-07-29T16:48:27;22.30;37.70
3037;DHT22;1528;52.550;13.408;2023-07-29T16:51:12;22.30;38.60
3037;DHT22;1528;52.550;13.408;2023-07-29T16:53:58;22.20;37.70
3037;DHT22;1528;52.550;13.408;2023-07-29T16:56:44;22.20;38.00
3037;DHT22;1528;52.550;13.408;2023-07-29T16:59:31;22.20;38.30
3037;DHT22;1528;52.550;13.408;2023-07-29T17:02:16;22.20;38.50
3037;DHT22;1528;52.550;13.408;2023-07-29T17:05:02;22.10;38.40
3037;DHT22;1528;52.550;13.408;2023-07-29T17:07:48;22.10;38.50
3037;DHT22;1528;52.550;13.408;2023-07-29T17:10:33;22.20;38.40
3037;DHT22;1528;52.550;13.408;2023-07-29T17:13:19;22.20;38.60
3037;DHT22;1528;52.550;13.408;2023-07-29T17:16:06;22.30;39.00
3037;DHT22;1528;52.550;13.408;2023-07-29T17:18:52;22.30;39.60
3037;DHT22;1528;52.550;13.408;2023-07-29T17:21:38;22.30;40.10
3037;DHT22;1528;52.550;13.408;2023-07-29T17:24:23;22.30;40.90
3037;DHT22;1528;52.550;13.408;2023-07-29T17:27:09;22.30;39.90
3037;DHT22;1528;52.550;13.408;2023-07-29T17:29:55;22.30;40.70
3037;DHT22;1528;52.550;13.408;2023-07-29T17:32:42;22.30;40.00
3037;DHT22;1528;52.550;13.408;2023-07-29T17:35:27;22.40;40.50
3037;DHT22;1528;52.550;13.408;2023-07-29T17:38:13;22.30;40.50
3037;DHT22;1528;52.550;13.408;2023-07-29T17:40:58;22.40;40.60
3037;DHT22;1528;52.550;13.408;2023-07-29T17:43:46;22.40;40.40
3037;DHT22;1528;52.550;13.408;2023-07-29T17:46:33;22.40;41.00
3037;DHT22;1528;52.550;13.408;2023-07-29T17:49:20;22.30;41.00
3037;DHT22;1528;52.550;13.408;2023-07-29T17:52:06;22.40;41.10
3037;DHT22;1528;52.550;13.408;2023-07-29T17:54:53;22.40;41.10
3037;DHT22;1528;52.550;13.408;2023-07-29T17:57:39;22.40;41.10
3037;DHT22;1528;52.550;13.408;2023-07-29T18:00:24;22.40;41.20